sensor_id;sensor_type;location;lat;lon;timestamp;temperature;humidity
1351;DHT22;669;50.206;9.998;2023-07-02T00:00:30;15.80;99.90
1351;DHT22;669;50.206;9.998;2023-07-02T00:03:00;15.80;99.90
1351;DHT22;669;50.206;9.998;2023-07-02T00:05:28;15.70;99.90
1351;DHT22;669;50.206;9.998;2023-07-02T00:07:56;15.70;99.90
1351;DHT22;669;50.206;9.998;2023-07-02T00:10:26;15.70;99.90
1351;DHT22;669;50.206;9.998;2023-07-02T00:12:54;15.80;99.90
1351;DHT22;669;50.206;9.998;2023-07-02T00:15:22;15.80;99.90
1351;DHT22;669;50.206;9.998;2023-07-02T00:17:50;15.90;99.90
1351;DHT22;669;50.206;9.998;2023-07-02T00:20:18;15.90;99.90
1351;DHT22;669;50.206;9.998;2023-07-02T00:22:46;15.90;99.90
1351;DHT22;669;50.206;9.998;2023-07-02T00:25:14;15.90;99.90
1351;DHT22;669;50.206;9.998;2023-07-02T00:27:44;15.90;99.90
1351;DHT22;669;50.206;9.998;2023-07-02T00:30:12;15.90;99.90
1351;DHT22;669;50.206;9.998;2023-07-02T00:32:41;16.00;99.90
1351;DHT22;669;50.206;9.998;2023-07-02T00:35:09;16.00;99.90
1351;DHT22;669;50.206;9.998;2023-07-02T00:37:37;16.00;99.90
1351;DHT22;669;50.206;9.998;2023-07-02T00:40:06;16.00;99.90
1351;DHT22;669;50.206;9.998;2023-07-02T00:42:35;16.00;99.90
1351;DHT22;669;50.206;9.998;2023-07-02T00:45:05;16.00;99.90
1351;DHT22;669;50.206;9.998;2023-07-02T00:47:34;16.00;99.90
1351;DHT22;669;50.206;9.998;2023-07-02T00:50:03;16.00;99.90
1351;DHT22;669;50.206;9.998;2023-07-02T00:52:32;16.00;99.90
1351;DHT22;669;50.206;9.998;2023-07-02T00:55:00;16.00;99.90
1351;DHT22;669;50.206;9.998;2023-07-02T00:57:28;16.00;99.90
1351;DHT22;669;50.206;9.998;2023-07-02T00:59:57;16.00;99.90
1351;DHT22;669;50.206;9.998;2023-07-02T01:02:28;15.90;99.90
1351;DHT22;669;50.206;9.998;2023-07-02T01:04:57;15.90;99.90
1351;DHT22;669;50.206;9.998;2023-07-02T01:07:27;15.90;99.90
1351;DHT22;669;50.206;9.998;2023-07-02T01:09:55;15.80;99.90
1351;DHT22;669;50.206;9.998;2023-07-02T01:12:24;15.80;99.90
1351;DHT22;669;50.206;9.998;2023-07-02T01:14:53;15.80;99.90
1351;DHT22;669;50.206;9.998;2023-07-02T01:17:25;15.80;99.90
1351;DHT22;669;50.206;9.998;2023-07-02T01:19:56;15.70;99.90
1351;DHT22;669;50.206;9.998;2023-07-02T01:22:27;15.70;99.90
1351;DHT22;669;50.206;9.998;2023-07-02T01:24:56;15.70;99.90
1351;DHT22;669;50.206;9.998;2023-07-02T01:27:24;15.70;99.90
1351;DHT22;669;50.206;9.998;2023-07-02T01:29:55;15.70;99.90
1351;DHT22;669;50.206;9.998;2023-07-02T01:32:23;15.70;99.90
1351;DHT22;669;50.206;9.998;2023-07-02T01:34:51;15.70;99.90
1351;DHT22;669;50.206;9.998;2023-07-02T01:37:22;15.70;99.90
1351;DHT22;669;50.206;9.998;2023-07-02T01:39:50;15.70;99.90
1351;DHT22;669;50.206;9.998;2023-07-02T01:42:18;15.80;99.90
1351;DHT22;669;50.206;9.998;2023-07-02T01:44:48;15.80;99.90
1351;DHT22;669;50.206;9.998;2023-07-02T01:47:18;15.80;99.90
1351;DHT22;669;50.206;9.998;2023-07-02T01:49:47;15.80;99.90
1351;DHT22;669;50.206;9.998;2023-07-02T01:52:15;15.80;99.90
1351;DHT22;669;50.206;9.998;2023-07-02T01:54:45;15.80;99.90
1351;DHT22;669;50.206;9.998;2023-07-02T01:57:13;15.70;99.90
1351;DHT22;669;50.206;9.998;2023-07-02T01:59:41;15.70;99.90
1351;DHT22;669;50.206;9.998;2023-07-02T02:02:09;15.70;99.90
1351;DHT22;669;50.206;9.998;2023-07-02T02:04:37;15.70;99.90
1351;DHT22;669;50.206;9.998;2023-07-02T02:07:05;15.70;99.90
1351;DHT22;669;50.206;9.998;2023-07-02T02:09:34;15.70;99.90
1351;DHT22;669;50.206;9.998;2023-07-02T02:12:04;15.70;99.90
1351;DHT22;669;50.206;9.998;2023-07-02T02:14:33;15.70;99.90
1351;DHT22;669;50.206;9.998;2023-07-02T02:17:01;15.70;99.90
1351;DHT22;669;50.206;9.998;2023-07-02T02:19:29;15.60;99.90
1351;DHT22;669;50.206;9.998;2023-07-02T02:21:57;15.60;99.90
1351;DHT22;669;50.206;9.998;2023-07-02T02:24:24;15.60;99.90
1351;DHT22;669;50.206;9.998;2023-07-02T02:26:52;15.60;99.90
1351;DHT22;669;50.206;9.998;2023-07-02T02:29:22;15.60;99.90
1351;DHT22;669;50.206;9.998;2023-07-02T02:31:50;15.60;99.90
1351;DHT22;669;50.206;9.998;2023-07-02T02:34:17;15.50;99.90
1351;DHT22;669;50.206;9.998;2023-07-02T02:36:45;15.50;99.90
1351;DHT22;669;50.206;9.998;2023-07-02T02:39:14;15.40;99.90
1351;DHT22;669;50.206;9.998;2023-07-02T02:41:42;15.40;99.90
1351;DHT22;669;50.206;9.998;2023-07-02T02:44:10;15.40;99.90
1351;DHT22;669;50.206;9.998;2023-07-02T02:46:39;15.40;99.90
1351;DHT22;669;50.206;9.998;2023-07-02T02:49:07;15.40;99.90
1351;DHT22;669;50.206;9.998;2023-07-02T02:51:35;15.30;99.90
1351;DHT22;669;50.206;9.998;2023-07-02T02:54:03;15.30;99.90
1351;DHT22;669;50.206;9.998;2023-07-02T02:56:31;15.30;99.90
1351;DHT22;669;50.206;9.998;2023-07-02T02:58:58;15.20;99.90
1351;DHT22;669;50.206;9.998;2023-07-02T03:01:26;15.20;99.90
1351;DHT22;669;50.206;9.998;2023-07-02T03:03:59;15.20;99.90
1351;DHT22;669;50.206;9.998;2023-07-02T03:06:27;15.10;99.90
1351;DHT22;669;50.206;9.998;2023-07-02T03:08:55;15.10;99.90
1351;DHT22;669;50.206;9.998;2023-07-02T03:11:23;15.10;99.90
1351;DHT22;669;50.206;9.998;2023-07-02T03:13:51;15.10;99.90
1351;DHT22;669;50.206;9.998;2023-07-02T03:16:19;15.00;99.90
1351;DHT22;669;50.206;9.998;2023-07-02T03:18:48;15.00;99.90
1351;DHT22;669;50.206;9.998;2023-07-02T03:21:17;15.00;99.90
1351;DHT22;669;50.206;9.998;2023-07-02T03:23:45;15.00;99.90
1351;DHT22;669;50.206;9.998;2023-07-02T03:26:13;15.00;99.90
1351;DHT22;669;50.206;9.998;2023-07-02T03:28:41;15.00;99.90
1351;DHT22;669;50.206;9.998;2023-07-02T03:31:09;15.00;99.90
1351;DHT22;669;50.206;9.998;2023-07-02T03:33:37;15.00;99.90
1351;DHT22;669;50.206;9.998;2023-07-02T03:36:05;15.00;99.90
1351;DHT22;669;50.206;9.998;2023-07-02T03:38:35;14.90;99.90
1351;DHT22;669;50.206;9.998;2023-07-02T03:41:03;14.90;99.90
1351;DHT22;669;50.206;9.998;2023-07-02T03:43:31;14.90;99.90
1351;DHT22;669;50.206;9.998;2023-07-02T03:45:59;14.90;99.90
1351;DHT22;669;50.206;9.998;2023-07-02T03:48:27;14.90;99.90
1351;DHT22;669;50.206;9.998;2023-07-02T03:50:55;14.80;99.90
1351;DHT22;669;50.206;9.998;2023-07-02T03:53:23;14.80;99.90
1351;DHT22;669;50.206;9.998;2023-07-02T03:55:52;14.80;99.90
1351;DHT22;669;50.206;9.998;2023-07-02T03:58:20;14.80;99.90
1351;DHT22;669;50.206;9.998;2023-07-02T04:00:48;14.80;99.90
1351;DHT22;669;50.206;9.998;2023-07-02T04:03:17;14.80;99.90
1351;DHT22;669;50.206;9.998;2023-07-02T04:05:45;14.80;99.90
1351;DHT22;669;50.206;9.998;2023-07-02T04:08:14;14.80;99.90
1351;DHT22;669;50.206;9.998;2023-07-02T04:10:42;14.80;99.70
1351;DHT22;669;50.206;9.998;2023-07-02T04:13:12;14.80;99.80
1351;DHT22;669;50.206;9.998;2023-07-02T04:15:40;14.80;99.90
1351;DHT22;669;50.206;9.998;2023-07-02T04:18:08;14.90;99.60
1351;DHT22;669;50.206;9.998;2023-07-02T04:20:36;14.90;99.50
1351;DHT22;669;50.206;9.998;2023-07-02T04:23:05;14.90;99.40
1351;DHT22;669;50.206;9.998;2023-07-02T04:25:33;14.90;98.90
1351;DHT22;669;50.206;9.998;2023-07-02T04:28:22;14.90;98.60
1351;DHT22;669;50.206;9.998;2023-07-02T04:30:50;14.90;98.60
1351;DHT22;669;50.206;9.998;2023-07-02T04:33:19;14.90;98.40
1351;DHT22;669;50.206;9.998;2023-07-02T04:35:48;15.00;98.50
1351;DHT22;669;50.206;9.998;2023-07-02T04:38:16;15.00;98.30
1351;DHT22;669;50.206;9.998;2023-07-02T04:40:44;15.00;98.30
1351;DHT22;669;50.206;9.998;2023-07-02T04:43:13;15.10;98.00
1351;DHT22;669;50.206;9.998;2023-07-02T04:45:46;15.10;97.70
1351;DHT22;669;50.206;9.998;2023-07-02T04:48:15;15.30;97.70
1351;DHT22;669;50.206;9.998;2023-07-02T04:50:43;15.40;96.80
1351;DHT22;669;50.206;9.998;2023-07-02T04:53:11;15.50;96.00
1351;DHT22;669;50.206;9.998;2023-07-02T04:55:39;15.50;94.70
1351;DHT22;669;50.206;9.998;2023-07-02T04:58:07;15.60;94.30
1351;DHT22;669;50.206;9.998;2023-07-02T05:00:35;15.60;93.70
1351;DHT22;669;50.206;9.998;2023-07-02T05:03:05;15.50;92.70
1351;DHT22;669;50.206;9.998;2023-07-02T05:05:33;15.50;92.80
1351;DHT22;669;50.206;9.998;2023-07-02T05:08:01;15.50;93.00
1351;DHT22;669;50.206;9.998;2023-07-02T05:10:31;15.50;93.20
1351;DHT22;669;50.206;9.998;2023-07-02T05:12:59;15.60;92.20
1351;DHT22;669;50.206;9.998;2023-07-02T05:15:27;15.80;92.50
1351;DHT22;669;50.206;9.998;2023-07-02T05:17:55;16.20;90.50
1351;DHT22;669;50.206;9.998;2023-07-02T05:20:24;16.50;88.80
1351;DHT22;669;50.206;9.998;2023-07-02T05:22:52;16.70;82.40
1351;DHT22;669;50.206;9.998;2023-07-02T05:25:20;16.70;80.60
1351;DHT22;669;50.206;9.998;2023-07-02T05:27:48;16.50;80.40
1351;DHT22;669;50.206;9.998;2023-07-02T05:30:16;16.40;80.30
1351;DHT22;669;50.206;9.998;2023-07-02T05:32:44;16.30;82.00
1351;DHT22;669;50.206;9.998;2023-07-02T05:35:12;16.30;84.40
1351;DHT22;669;50.206;9.998;2023-07-02T05:37:42;16.40;83.80
1351;DHT22;669;50.206;9.998;2023-07-02T05:40:10;16.80;84.20
1351;DHT22;669;50.206;9.998;2023-07-02T05:42:41;17.10;78.50
1351;DHT22;669;50.206;9.998;2023-07-02T05:45:10;17.60;74.60
1351;DHT22;669;50.206;9.998;2023-07-02T05:47:38;18.00;72.10
1351;DHT22;669;50.206;9.998;2023-07-02T05:50:08;18.30;67.80
1351;DHT22;669;50.206;9.998;2023-07-02T05:52:36;18.30;67.50
1351;DHT22;669;50.206;9.998;2023-07-02T05:55:08;18.10;65.80
1351;DHT22;669;50.206;9.998;2023-07-02T05:57:37;17.90;67.00
1351;DHT22;669;50.206;9.998;2023-07-02T06:00:06;17.60;68.20
1351;DHT22;669;50.206;9.998;2023-07-02T06:02:34;17.30;71.40
1351;DHT22;669;50.206;9.998;2023-07-02T06:05:02;17.00;70.30
1351;DHT22;669;50.206;9.998;2023-07-02T06:07:30;16.70;74.50
1351;DHT22;669;50.206;9.998;2023-07-02T06:09:58;16.80;75.80
1351;DHT22;669;50.206;9.998;2023-07-02T06:12:28;17.20;75.70
1351;DHT22;669;50.206;9.998;2023-07-02T06:14:56;17.80;71.70
1351;DHT22;669;50.206;9.998;2023-07-02T06:17:24;18.10;65.40
1351;DHT22;669;50.206;9.998;2023-07-02T06:19:52;18.40;60.20
1351;DHT22;669;50.206;9.998;2023-07-02T06:22:20;18.60;59.70
1351;DHT22;669;50.206;9.998;2023-07-02T06:24:48;18.70;58.70
1351;DHT22;669;50.206;9.998;2023-07-02T06:27:15;18.80;56.90
1351;DHT22;669;50.206;9.998;2023-07-02T06:29:45;18.90;55.80
1351;DHT22;669;50.206;9.998;2023-07-02T06:32:13;18.90;55.30
1351;DHT22;669;50.206;9.998;2023-07-02T06:34:41;19.10;56.60
1351;DHT22;669;50.206;9.998;2023-07-02T06:37:09;19.30;55.60
1351;DHT22;669;50.206;9.998;2023-07-02T06:39:37;19.20;54.70
1351;DHT22;669;50.206;9.998;2023-07-02T06:42:05;19.00;53.70
1351;DHT22;669;50.206;9.998;2023-07-02T06:44:32;19.00;54.40
1351;DHT22;669;50.206;9.998;2023-07-02T06:47:02;19.00;53.70
1351;DHT22;669;50.206;9.998;2023-07-02T06:49:30;19.20;55.00
1351;DHT22;669;50.206;9.998;2023-07-02T06:51:58;19.60;53.70
1351;DHT22;669;50.206;9.998;2023-07-02T06:54:27;20.00;49.30
1351;DHT22;669;50.206;9.998;2023-07-02T06:56:55;20.30;47.30
1351;DHT22;669;50.206;9.998;2023-07-02T06:59:23;20.60;45.30
1351;DHT22;669;50.206;9.998;2023-07-02T07:01:51;20.80;46.20
1351;DHT22;669;50.206;9.998;2023-07-02T07:04:20;21.10;44.10
1351;DHT22;669;50.206;9.998;2023-07-02T07:06:48;21.10;44.10
1351;DHT22;669;50.206;9.998;2023-07-02T07:09:17;21.20;43.20
1351;DHT22;669;50.206;9.998;2023-07-02T07:11:45;21.50;40.70
1351;DHT22;669;50.206;9.998;2023-07-02T07:14:13;21.60;39.60
1351;DHT22;669;50.206;9.998;2023-07-02T07:16:41;21.70;39.20
1351;DHT22;669;50.206;9.998;2023-07-02T07:19:09;21.90;40.30
1351;DHT22;669;50.206;9.998;2023-07-02T07:21:38;21.90;38.80
1351;DHT22;669;50.206;9.998;2023-07-02T07:24:06;21.90;37.10
1351;DHT22;669;50.206;9.998;2023-07-02T07:26:34;21.60;35.10
1351;DHT22;669;50.206;9.998;2023-07-02T07:29:04;21.30;36.40
1351;DHT22;669;50.206;9.998;2023-07-02T07:31:32;20.90;39.70
1351;DHT22;669;50.206;9.998;2023-07-02T07:34:00;21.10;39.50
1351;DHT22;669;50.206;9.998;2023-07-02T07:36:28;21.50;40.20
1351;DHT22;669;50.206;9.998;2023-07-02T07:38:57;21.80;37.00
1351;DHT22;669;50.206;9.998;2023-07-02T07:41:25;21.90;36.80
1351;DHT22;669;50.206;9.998;2023-07-02T07:43:53;21.80;34.90
1351;DHT22;669;50.206;9.998;2023-07-02T07:46:21;21.60;35.60
1351;DHT22;669;50.206;9.998;2023-07-02T07:48:51;21.30;36.00
1351;DHT22;669;50.206;9.998;2023-07-02T07:51:19;21.20;36.90
1351;DHT22;669;50.206;9.998;2023-07-02T07:53:47;21.00;38.00
1351;DHT22;669;50.206;9.998;2023-07-02T07:56:16;21.00;38.10
1351;DHT22;669;50.206;9.998;2023-07-02T07:58:44;21.00;39.80
1351;DHT22;669;50.206;9.998;2023-07-02T08:01:12;21.60;39.60
1351;DHT22;669;50.206;9.998;2023-07-02T08:03:40;22.20;34.50
1351;DHT22;669;50.206;9.998;2023-07-02T08:06:08;22.70;27.20
1351;DHT22;669;50.206;9.998;2023-07-02T08:08:36;23.00;22.30
1351;DHT22;669;50.206;9.998;2023-07-02T08:11:04;22.90;22.90
1351;DHT22;669;50.206;9.998;2023-07-02T08:13:33;22.80;22.60
1351;DHT22;669;50.206;9.998;2023-07-02T08:16:01;22.70;23.30
1351;DHT22;669;50.206;9.998;2023-07-02T08:18:29;22.60;22.80
1351;DHT22;669;50.206;9.998;2023-07-02T08:20:57;22.50;22.50
1351;DHT22;669;50.206;9.998;2023-07-02T08:23:25;22.60;23.00
1351;DHT22;669;50.206;9.998;2023-07-02T08:25:53;22.50;23.30
1351;DHT22;669;50.206;9.998;2023-07-02T08:28:21;22.70;23.10
1351;DHT22;669;50.206;9.998;2023-07-02T08:30:50;22.60;23.30
1351;DHT22;669;50.206;9.998;2023-07-02T08:33:18;22.60;22.50
1351;DHT22;669;50.206;9.998;2023-07-02T08:35:47;22.60;22.40
1351;DHT22;669;50.206;9.998;2023-07-02T08:38:15;22.40;23.00
1351;DHT22;669;50.206;9.998;2023-07-02T08:40:43;22.50;23.10
1351;DHT22;669;50.206;9.998;2023-07-02T08:43:10;22.40;23.50
1351;DHT22;669;50.206;9.998;2023-07-02T08:45:40;22.10;23.90
1351;DHT22;669;50.206;9.998;2023-07-02T08:48:10;21.90;24.60
1351;DHT22;669;50.206;9.998;2023-07-02T08:50:39;21.80;24.30
1351;DHT22;669;50.206;9.998;2023-07-02T08:53:07;21.70;25.20
1351;DHT22;669;50.206;9.998;2023-07-02T08:55:35;21.70;26.00
1351;DHT22;669;50.206;9.998;2023-07-02T08:58:03;22.20;25.80
1351;DHT22;669;50.206;9.998;2023-07-02T09:00:31;22.50;24.20
1351;DHT22;669;50.206;9.998;2023-07-02T09:03:13;22.40;23.30
1351;DHT22;669;50.206;9.998;2023-07-02T09:05:50;22.10;23.90
1351;DHT22;669;50.206;9.998;2023-07-02T09:08:25;21.90;24.40
1351;DHT22;669;50.206;9.998;2023-07-02T09:10:53;21.60;24.90
1351;DHT22;669;50.206;9.998;2023-07-02T09:13:21;21.20;25.90
1351;DHT22;669;50.206;9.998;2023-07-02T09:15:49;21.00;25.80
1351;DHT22;669;50.206;9.998;2023-07-02T09:18:20;20.70;26.80
1351;DHT22;669;50.206;9.998;2023-07-02T09:20:50;20.50;27.30
1351;DHT22;669;50.206;9.998;2023-07-02T09:23:18;20.30;28.40
1351;DHT22;669;50.206;9.998;2023-07-02T09:25:46;20.40;29.10
1351;DHT22;669;50.206;9.998;2023-07-02T09:28:17;20.40;28.20
1351;DHT22;669;50.206;9.998;2023-07-02T09:30:52;20.40;28.70
1351;DHT22;669;50.206;9.998;2023-07-02T09:33:23;20.50;29.70
1351;DHT22;669;50.206;9.998;2023-07-02T09:35:51;20.60;30.00
1351;DHT22;669;50.206;9.998;2023-07-02T09:38:20;20.70;29.20
1351;DHT22;669;50.206;9.998;2023-07-02T09:40:50;20.50;27.90
1351;DHT22;669;50.206;9.998;2023-07-02T09:43:19;20.30;29.20
1351;DHT22;669;50.206;9.998;2023-07-02T09:45:49;20.00;29.10
1351;DHT22;669;50.206;9.998;2023-07-02T09:48:18;19.80;30.40
1351;DHT22;669;50.206;9.998;2023-07-02T09:50:51;19.70;31.10
1351;DHT22;669;50.206;9.998;2023-07-02T09:53:19;19.60;30.90
1351;DHT22;669;50.206;9.998;2023-07-02T09:55:47;19.50;32.10
1351;DHT22;669;50.206;9.998;2023-07-02T09:58:16;19.40;32.30
1351;DHT22;669;50.206;9.998;2023-07-02T10:00:44;19.60;33.50
1351;DHT22;669;50.206;9.998;2023-07-02T10:03:12;19.70;32.70
1351;DHT22;669;50.206;9.998;2023-07-02T10:05:40;19.80;31.40
1351;DHT22;669;50.206;9.998;2023-07-02T10:08:13;19.90;30.90
1351;DHT22;669;50.206;9.998;2023-07-02T10:10:43;20.20;31.60
1351;DHT22;669;50.206;9.998;2023-07-02T10:13:12;20.90;28.70
1351;DHT22;669;50.206;9.998;2023-07-02T10:15:40;21.70;27.50
1351;DHT22;669;50.206;9.998;2023-07-02T10:18:08;22.60;23.40
1351;DHT22;669;50.206;9.998;2023-07-02T10:20:38;23.40;21.30
1351;DHT22;669;50.206;9.998;2023-07-02T10:23:08;23.60;19.90
1351;DHT22;669;50.206;9.998;2023-07-02T10:25:38;23.40;18.50
1351;DHT22;669;50.206;9.998;2023-07-02T10:28:17;22.90;19.40
1351;DHT22;669;50.206;9.998;2023-07-02T10:30:46;22.40;20.40
1351;DHT22;669;50.206;9.998;2023-07-02T10:33:16;22.10;21.90
1351;DHT22;669;50.206;9.998;2023-07-02T10:35:45;21.90;23.10
1351;DHT22;669;50.206;9.998;2023-07-02T10:38:18;21.90;23.50
1351;DHT22;669;50.206;9.998;2023-07-02T10:40:53;21.90;22.80
1351;DHT22;669;50.206;9.998;2023-07-02T10:43:25;22.00;23.00
1351;DHT22;669;50.206;9.998;2023-07-02T10:45:57;22.00;22.30
1351;DHT22;669;50.206;9.998;2023-07-02T10:48:27;22.00;21.50
1351;DHT22;669;50.206;9.998;2023-07-02T10:50:55;22.00;21.40
1351;DHT22;669;50.206;9.998;2023-07-02T10:53:23;22.20;22.00
1351;DHT22;669;50.206;9.998;2023-07-02T10:55:55;22.50;21.90
1351;DHT22;669;50.206;9.998;2023-07-02T10:58:25;23.10;20.20
1351;DHT22;669;50.206;9.998;2023-07-02T11:00:53;23.40;18.60
1351;DHT22;669;50.206;9.998;2023-07-02T11:03:23;23.40;18.50
1351;DHT22;669;50.206;9.998;2023-07-02T11:05:52;23.20;18.30
1351;DHT22;669;50.206;9.998;2023-07-02T11:08:21;22.80;17.00
1351;DHT22;669;50.206;9.998;2023-07-02T11:10:50;22.60;17.20
1351;DHT22;669;50.206;9.998;2023-07-02T11:13:20;22.40;17.60
1351;DHT22;669;50.206;9.998;2023-07-02T11:15:48;22.20;19.50
1351;DHT22;669;50.206;9.998;2023-07-02T11:18:17;21.90;21.40
1351;DHT22;669;50.206;9.998;2023-07-02T11:20:48;21.80;21.90
1351;DHT22;669;50.206;9.998;2023-07-02T11:23:19;21.50;21.90
1351;DHT22;669;50.206;9.998;2023-07-02T11:25:56;21.70;22.30
1351;DHT22;669;50.206;9.998;2023-07-02T11:28:27;22.30;21.60
1351;DHT22;669;50.206;9.998;2023-07-02T11:30:55;22.90;21.10
1351;DHT22;669;50.206;9.998;2023-07-02T11:33:33;23.30;20.10
1351;DHT22;669;50.206;9.998;2023-07-02T11:36:01;23.30;17.30
1351;DHT22;669;50.206;9.998;2023-07-02T11:38:29;23.10;17.30
1351;DHT22;669;50.206;9.998;2023-07-02T11:40:57;22.70;17.60
1351;DHT22;669;50.206;9.998;2023-07-02T11:43:27;22.50;18.10
1351;DHT22;669;50.206;9.998;2023-07-02T11:45:54;22.30;18.80
1351;DHT22;669;50.206;9.998;2023-07-02T11:48:22;22.10;18.40
1351;DHT22;669;50.206;9.998;2023-07-02T11:50:50;21.90;17.00
1351;DHT22;669;50.206;9.998;2023-07-02T11:53:18;21.80;17.30
1351;DHT22;669;50.206;9.998;2023-07-02T11:55:46;21.70;17.20
1351;DHT22;669;50.206;9.998;2023-07-02T11:58:15;21.60;17.10
1351;DHT22;669;50.206;9.998;2023-07-02T12:00:44;21.40;17.10
1351;DHT22;669;50.206;9.998;2023-07-02T12:03:12;21.40;17.80
1351;DHT22;669;50.206;9.998;2023-07-02T12:05:40;21.50;18.20
1351;DHT22;669;50.206;9.998;2023-07-02T12:08:08;21.70;18.40
1351;DHT22;669;50.206;9.998;2023-07-02T12:10:36;22.10;17.60
1351;DHT22;669;50.206;9.998;2023-07-02T12:13:05;22.30;17.40
1351;DHT22;669;50.206;9.998;2023-07-02T12:15:33;22.30;16.80
1351;DHT22;669;50.206;9.998;2023-07-02T12:18:02;22.20;17.40
1351;DHT22;669;50.206;9.998;2023-07-02T12:20:30;22.10;17.10
1351;DHT22;669;50.206;9.998;2023-07-02T12:22:58;22.10;16.80
1351;DHT22;669;50.206;9.998;2023-07-02T12:25:27;21.90;16.20
1351;DHT22;669;50.206;9.998;2023-07-02T12:27:55;21.80;16.70
1351;DHT22;669;50.206;9.998;2023-07-02T12:30:23;21.70;17.20
1351;DHT22;669;50.206;9.998;2023-07-02T12:32:51;21.70;17.30
1351;DHT22;669;50.206;9.998;2023-07-02T12:35:20;21.90;17.00
1351;DHT22;669;50.206;9.998;2023-07-02T12:37:50;22.40;17.30
1351;DHT22;669;50.206;9.998;2023-07-02T12:40:19;23.20;15.30
1351;DHT22;669;50.206;9.998;2023-07-02T12:42:47;23.90;14.10
1351;DHT22;669;50.206;9.998;2023-07-02T12:45:16;24.40;14.10
1351;DHT22;669;50.206;9.998;2023-07-02T12:47:47;25.00;13.50
1351;DHT22;669;50.206;9.998;2023-07-02T12:50:15;25.10;11.80
1351;DHT22;669;50.206;9.998;2023-07-02T12:52:45;24.70;11.70
1351;DHT22;669;50.206;9.998;2023-07-02T12:55:13;24.00;12.50
1351;DHT22;669;50.206;9.998;2023-07-02T12:57:41;23.40;14.00
1351;DHT22;669;50.206;9.998;2023-07-02T13:00:10;23.00;15.30
1351;DHT22;669;50.206;9.998;2023-07-02T13:02:38;22.70;15.20
1351;DHT22;669;50.206;9.998;2023-07-02T13:05:19;22.70;16.20
1351;DHT22;669;50.206;9.998;2023-07-02T13:07:49;22.80;15.90
1351;DHT22;669;50.206;9.998;2023-07-02T13:10:16;22.90;15.60
1351;DHT22;669;50.206;9.998;2023-07-02T13:12:44;23.10;15.40
1351;DHT22;669;50.206;9.998;2023-07-02T13:15:12;23.60;15.40
1351;DHT22;669;50.206;9.998;2023-07-02T13:17:40;24.30;14.20
1351;DHT22;669;50.206;9.998;2023-07-02T13:20:10;25.10;12.10
1351;DHT22;669;50.206;9.998;2023-07-02T13:22:38;26.00;10.00
1351;DHT22;669;50.206;9.998;2023-07-02T13:25:08;26.50;9.80
1351;DHT22;669;50.206;9.998;2023-07-02T13:27:37;26.60;10.00
1351;DHT22;669;50.206;9.998;2023-07-02T13:30:06;26.10;10.00
1351;DHT22;669;50.206;9.998;2023-07-02T13:32:34;25.50;10.20
1351;DHT22;669;50.206;9.998;2023-07-02T13:35:02;24.70;11.30
1351;DHT22;669;50.206;9.998;2023-07-02T13:37:30;24.00;12.70
1351;DHT22;669;50.206;9.998;2023-07-02T13:39:58;23.90;13.30
1351;DHT22;669;50.206;9.998;2023-07-02T13:42:29;23.90;13.60
1351;DHT22;669;50.206;9.998;2023-07-02T13:44:57;23.80;12.30
1351;DHT22;669;50.206;9.998;2023-07-02T13:47:25;23.70;13.60
1351;DHT22;669;50.206;9.998;2023-07-02T13:49:55;24.10;13.60
1351;DHT22;669;50.206;9.998;2023-07-02T13:52:23;24.70;12.10
1351;DHT22;669;50.206;9.998;2023-07-02T13:54:51;25.40;11.20
1351;DHT22;669;50.206;9.998;2023-07-02T13:57:19;26.20;7.50
1351;DHT22;669;50.206;9.998;2023-07-02T13:59:48;26.10;7.50
1351;DHT22;669;50.206;9.998;2023-07-02T14:02:16;25.60;8.10
1351;DHT22;669;50.206;9.998;2023-07-02T14:04:45;25.20;9.40
1351;DHT22;669;50.206;9.998;2023-07-02T14:07:13;25.10;9.50
1351;DHT22;669;50.206;9.998;2023-07-02T14:09:41;24.80;9.40
1351;DHT22;669;50.206;9.998;2023-07-02T14:12:09;24.60;9.80
1351;DHT22;669;50.206;9.998;2023-07-02T14:14:39;24.40;9.10
1351;DHT22;669;50.206;9.998;2023-07-02T14:17:08;24.30;9.80
1351;DHT22;669;50.206;9.998;2023-07-02T14:19:36;24.10;8.90
1351;DHT22;669;50.206;9.998;2023-07-02T14:22:04;23.90;8.70
1351;DHT22;669;50.206;9.998;2023-07-02T14:24:33;23.70;9.30
1351;DHT22;669;50.206;9.998;2023-07-02T14:27:01;23.40;10.70
1351;DHT22;669;50.206;9.998;2023-07-02T14:29:29;23.30;10.20
1351;DHT22;669;50.206;9.998;2023-07-02T14:31:57;23.20;10.40
1351;DHT22;669;50.206;9.998;2023-07-02T14:34:26;23.10;10.60
1351;DHT22;669;50.206;9.998;2023-07-02T14:36:56;23.10;9.70
1351;DHT22;669;50.206;9.998;2023-07-02T14:39:24;23.10;11.30
1351;DHT22;669;50.206;9.998;2023-07-02T14:41:51;23.40;10.40
1351;DHT22;669;50.206;9.998;2023-07-02T14:44:19;23.80;9.40
1351;DHT22;669;50.206;9.998;2023-07-02T14:46:47;23.90;9.40
1351;DHT22;669;50.206;9.998;2023-07-02T14:49:15;23.80;10.10
1351;DHT22;669;50.206;9.998;2023-07-02T14:51:45;24.00;9.60
1351;DHT22;669;50.206;9.998;2023-07-02T14:54:12;24.10;10.20
1351;DHT22;669;50.206;9.998;2023-07-02T14:56:40;24.10;9.60
1351;DHT22;669;50.206;9.998;2023-07-02T14:59:08;24.00;8.90
1351;DHT22;669;50.206;9.998;2023-07-02T15:01:36;23.80;10.20
1351;DHT22;669;50.206;9.998;2023-07-02T15:04:05;23.80;8.70
1351;DHT22;669;50.206;9.998;2023-07-02T15:06:33;23.80;9.40
1351;DHT22;669;50.206;9.998;2023-07-02T15:09:02;23.70;9.90
1351;DHT22;669;50.206;9.998;2023-07-02T15:11:30;23.70;10.30
1351;DHT22;669;50.206;9.998;2023-07-02T15:13:58;23.70;9.20
1351;DHT22;669;50.206;9.998;2023-07-02T15:16:27;23.60;8.50
1351;DHT22;669;50.206;9.998;2023-07-02T15:18:55;23.40;9.20
1351;DHT22;669;50.206;9.998;2023-07-02T15:21:23;23.30;9.50
1351;DHT22;669;50.206;9.998;2023-07-02T15:23:51;23.30;10.20
1351;DHT22;669;50.206;9.998;2023-07-02T15:26:20;23.40;9.70
1351;DHT22;669;50.206;9.998;2023-07-02T15:28:48;23.60;8.00
1351;DHT22;669;50.206;9.998;2023-07-02T15:31:16;23.60;8.50
1351;DHT22;669;50.206;9.998;2023-07-02T15:33:47;23.50;8.00
1351;DHT22;669;50.206;9.998;2023-07-02T15:36:15;23.30;8.40
1351;DHT22;669;50.206;9.998;2023-07-02T15:38:43;23.30;8.30
1351;DHT22;669;50.206;9.998;2023-07-02T15:41:13;23.30;8.30
1351;DHT22;669;50.206;9.998;2023-07-02T15:43:44;23.30;8.30
1351;DHT22;669;50.206;9.998;2023-07-02T15:46:14;23.30;7.50
1351;DHT22;669;50.206;9.998;2023-07-02T15:48:42;23.10;7.60
1351;DHT22;669;50.206;9.998;2023-07-02T15:51:11;23.00;7.50
1351;DHT22;669;50.206;9.998;2023-07-02T15:53:40;22.90;8.10
1351;DHT22;669;50.206;9.998;2023-07-02T15:56:10;23.10;8.20
1351;DHT22;669;50.206;9.998;2023-07-02T15:58:38;23.20;7.90
1351;DHT22;669;50.206;9.998;2023-07-02T16:01:12;23.20;7.30
1351;DHT22;669;50.206;9.998;2023-07-02T16:03:40;23.10;7.70
1351;DHT22;669;50.206;9.998;2023-07-02T16:06:10;23.00;7.50
1351;DHT22;669;50.206;9.998;2023-07-02T16:08:39;22.90;8.10
1351;DHT22;669;50.206;9.998;2023-07-02T16:11:08;23.00;8.10
1351;DHT22;669;50.206;9.998;2023-07-02T16:13:37;23.10;7.30
1351;DHT22;669;50.206;9.998;2023-07-02T16:16:06;23.10;8.10
1351;DHT22;669;50.206;9.998;2023-07-02T16:18:35;23.10;6.80
1351;DHT22;669;50.206;9.998;2023-07-02T16:21:04;23.00;6.20
1351;DHT22;669;50.206;9.998;2023-07-02T16:23:32;22.90;7.20
1351;DHT22;669;50.206;9.998;2023-07-02T16:26:04;22.80;7.20
1351;DHT22;669;50.206;9.998;2023-07-02T16:28:34;22.70;7.90